Time;durP1;ratioP1;P1;durP2;ratioP2;P2;SDS_P1;SDS_P2;PMS_P1;PMS_P2;Temp;Humidity;BMP_temperature;BMP_pressure;BME280_temperature;BME280_humidity;BME280_pressure;Samples;Min_cycle;Max_cycle;Signal;HPM_P1;HPM_P2
2023/06/06 00:00:33;;;;;;;16.80;10.32;;;17.80;99.90;;;;;;5054030;28;20040;-65
2023/06/06 00:02:59;;;;;;;16.40;10.60;;;17.90;99.90;;;;;;5053819;28;20075;-65
2023/06/06 00:05:27;;;;;;;16.25;10.18;;;17.90;99.90;;;;;;5053966;28;20037;-65
2023/06/06 00:07:53;;;;;;;15.82;10.00;;;17.80;99.90;;;;;;5038971;28;20483;-64
2023/06/06 00:10:19;;;;;;;14.77;9.73;;;17.70;99.90;;;;;;5056675;28;20029;-65
2023/06/06 00:12:46;;;;;;;13.80;10.20;;;17.70;99.90;;;;;;5057789;28;20035;-65
2023/06/06 00:15:14;;;;;;;16.52;10.15;;;17.70;99.90;;;;;;5057934;28;20100;-65
2023/06/06 00:17:44;;;;;;;15.90;9.98;;;17.80;99.90;;;;;;5057849;28;20021;-65
2023/06/06 00:20:12;;;;;;;14.68;10.13;;;17.90;99.90;;;;;;5057789;28;20044;-65
2023/06/06 00:22:39;;;;;;;19.98;10.07;;;17.80;99.90;;;;;;5057705;28;20082;-64
2023/06/06 00:25:06;;;;;;;16.20;9.90;;;17.80;99.90;;;;;;5056389;28;20544;-65
2023/06/06 00:27:36;;;;;;;14.52;9.90;;;17.70;99.90;;;;;;5056259;28;20502;-65
2023/06/06 00:30:04;;;;;;;15.45;11.05;;;17.70;99.90;;;;;;5057646;28;20371;-65
2023/06/06 00:32:30;;;;;;;16.63;10.25;;;17.60;99.90;;;;;;5057356;28;20036;-65
2023/06/06 00:34:56;;;;;;;20.30;10.23;;;17.60;99.90;;;;;;5057483;28;20029;-65
2023/06/06 00:37:22;;;;;;;14.95;10.32;;;17.50;99.90;;;;;;5057549;28;20029;-65
2023/06/06 00:39:48;;;;;;;17.38;10.43;;;17.50;99.90;;;;;;5056269;28;20029;-65
2023/06/06 00:42:14;;;;;;;18.17;10.45;;;17.50;99.90;;;;;;5056066;28;20029;-65
2023/06/06 00:44:41;;;;;;;17.20;10.68;;;17.60;99.90;;;;;;5056023;28;20449;-64
2023/06/06 00:47:07;;;;;;;17.65;10.43;;;17.50;99.90;;;;;;5057115;28;20056;-64
2023/06/06 00:49:36;;;;;;;16.50;10.02;;;17.50;99.90;;;;;;5057126;28;20029;-65
2023/06/06 00:52:02;;;;;;;21.02;10.65;;;17.40;99.90;;;;;;5057139;28;20112;-64
2023/06/06 00:54:31;;;;;;;14.73;9.55;;;17.40;99.90;;;;;;5057112;28;20020;-64
2023/06/06 00:56:57;;;;;;;14.52;9.73;;;17.40;99.90;;;;;;5059029;28;20132;-65
2023/06/06 00:59:24;;;;;;;20.60;10.52;;;17.40;99.90;;;;;;5077078;28;20494;-65
2023/06/06 01:01:51;;;;;;;17.40;10.50;;;17.40;99.90;;;;;;5075700;28;20040;-65
2023/06/06 01:04:18;;;;;;;13.93;10.20;;;17.40;99.90;;;;;;5076965;28;20562;-65
2023/06/06 01:06:45;;;;;;;19.02;9.90;;;17.40;99.90;;;;;;5076933;28;20025;-65
2023/06/06 01:09:15;;;;;;;20.85;9.93;;;17.30;99.90;;;;;;5076693;28;20032;-65
2023/06/06 01:11:44;;;;;;;26.20;9.45;;;17.30;99.90;;;;;;5076818;28;20029;-65
2023/06/06 01:14:51;;;;;;;14.73;9.82;;;17.30;99.90;;;;;;5077011;28;20062;-65
2023/06/06 01:17:19;;;;;;;17.80;9.18;;;17.30;99.90;;;;;;5045106;28;20036;-65
2023/06/06 01:19:50;;;;;;;14.10;9.85;;;17.20;99.90;;;;;;5075507;28;20032;-65
2023/06/06 01:22:17;;;;;;;;;;;17.30;99.90;;;;;;5077070;28;20035;-65
2023/06/06 01:24:51;;;;;;;34.47;10.45;;;17.20;99.90;;;;;;5075210;28;19916;-65
2023/06/06 01:27:17;;;;;;;17.17;9.40;;;17.30;99.90;;;;;;5076600;28;20024;-65
2023/06/06 01:29:43;;;;;;;18.27;8.68;;;17.20;99.90;;;;;;5075184;28;20086;-65
2023/06/06 01:32:16;;;;;;;20.15;10.90;;;17.20;99.90;;;;;;5075283;28;20025;-65
2023/06/06 01:34:48;;;;;;;17.85;8.65;;;17.20;99.90;;;;;;5075225;28;20054;-65
2023/06/06 01:37:35;;;;;;;17.98;9.27;;;17.20;99.90;;;;;;5076400;28;20091;-65
2023/06/06 01:40:07;;;;;;;16.25;10.00;;;17.30;99.90;;;;;;5076317;28;20432;-65
2023/06/06 01:42:42;;;;;;;14.95;8.85;;;17.30;99.90;;;;;;5076194;28;20377;-65
2023/06/06 01:45:11;;;;;;;16.15;8.25;;;17.20;99.90;;;;;;5074972;28;20510;-65
2023/06/06 01:47:38;;;;;;;19.20;9.15;;;17.20;99.90;;;;;;5076137;28;20062;-65
2023/06/06 01:50:07;;;;;;;16.67;8.65;;;17.20;99.90;;;;;;5076040;28;20040;-65
2023/06/06 01:52:35;;;;;;;19.05;8.10;;;17.10;99.90;;;;;;5074731;28;20428;-65
2023/06/06 01:55:01;;;;;;;16.00;8.68;;;17.10;99.90;;;;;;5075935;28;20354;-65
2023/06/06 01:57:28;;;;;;;10.13;7.85;;;17.20;99.90;;;;;;5074530;28;20033;-65
2023/06/06 01:59:55;;;;;;;12.43;7.55;;;17.30;99.90;;;;;;5057806;28;20031;-65
2023/06/06 02:02:21;;;;;;;13.23;7.75;;;17.30;99.90;;;;;;5074593;28;20024;-65
2023/06/06 02:04:48;;;;;;;13.48;7.72;;;17.40;99.90;;;;;;5075801;28;20051;-65
2023/06/06 02:07:15;;;;;;;12.45;7.10;;;17.30;99.90;;;;;;5074407;28;20489;-65
2023/06/06 02:09:42;;;;;;;10.10;7.90;;;17.30;99.90;;;;;;5074328;28;20020;-65
2023/06/06 02:12:10;;;;;;;13.50;7.60;;;17.20;99.90;;;;;;5074442;28;20112;-65
2023/06/06 02:14:36;;;;;;;13.13;7.63;;;17.30;99.90;;;;;;5074290;28;20032;-65
2023/06/06 02:17:03;;;;;;;12.60;7.80;;;17.30;99.90;;;;;;5075796;28;20066;-65
2023/06/06 02:19:32;;;;;;;13.05;6.85;;;17.30;99.90;;;;;;5074201;28;20154;-66
2023/06/06 02:22:00;;;;;;;11.35;8.40;;;17.30;99.90;;;;;;5074257;28;20075;-65
2023/06/06 02:24:26;;;;;;;11.93;7.78;;;17.30;99.90;;;;;;5075502;28;20032;-65
2023/06/06 02:26:53;;;;;;;13.88;7.97;;;17.30;99.90;;;;;;5057485;28;20055;-65
2023/06/06 02:29:20;;;;;;;10.07;6.95;;;17.20;99.90;;;;;;5074769;28;20033;-65
2023/06/06 02:31:46;;;;;;;10.95;7.25;;;17.20;99.90;;;;;;5073913;28;20033;-65
2023/06/06 02:34:12;;;;;;;14.35;7.30;;;17.10;99.90;;;;;;5074118;28;20028;-65
2023/06/06 02:36:38;;;;;;;12.52;7.70;;;17.20;99.90;;;;;;5057230;28;20031;-65
2023/06/06 02:39:05;;;;;;;13.32;7.30;;;17.20;99.90;;;;;;5073878;28;20040;-65
2023/06/06 02:41:31;;;;;;;17.63;7.80;;;17.20;99.90;;;;;;5075231;28;20486;-65
2023/06/06 02:43:57;;;;;;;12.48;7.25;;;17.10;99.90;;;;;;5057026;28;20498;-65
2023/06/06 02:46:24;;;;;;;14.85;7.80;;;17.10;99.90;;;;;;5073795;28;20024;-65
2023/06/06 02:48:50;;;;;;;12.63;8.30;;;17.10;99.90;;;;;;5074037;28;20094;-65
2023/06/06 02:51:16;;;;;;;18.48;8.40;;;17.20;99.90;;;;;;5074783;28;20423;-65
2023/06/06 02:53:43;;;;;;;14.00;8.23;;;17.10;99.90;;;;;;5074845;28;20077;-64
2023/06/06 02:56:12;;;;;;;16.30;7.78;;;17.10;99.90;;;;;;5073312;28;20087;-65
2023/06/06 02:58:38;;;;;;;15.43;7.68;;;17.10;99.90;;;;;;5073358;28;20027;-65
2023/06/06 03:01:05;;;;;;;14.60;7.75;;;17.10;99.90;;;;;;5074834;28;20386;-65
2023/06/06 03:03:31;;;;;;;18.50;8.25;;;17.10;99.90;;;;;;5074730;28;20028;-66
2023/06/06 03:05:58;;;;;;;17.73;8.55;;;17.10;99.90;;;;;;5073403;28;20124;-65
2023/06/06 03:08:25;;;;;;;14.75;8.00;;;17.00;99.90;;;;;;5073368;28;20047;-65
2023/06/06 03:10:52;;;;;;;20.00;8.90;;;17.10;99.90;;;;;;5073005;28;20063;-65
2023/06/06 03:13:18;;;;;;;9.93;7.65;;;17.10;99.90;;;;;;5073629;28;20047;-65
2023/06/06 03:15:44;;;;;;;17.17;9.32;;;17.10;99.90;;;;;;5073384;28;20534;-65
2023/06/06 03:18:18;;;;;;;15.65;8.68;;;17.10;99.90;;;;;;5073190;28;20086;-65
2023/06/06 03:20:53;;;;;;;17.05;8.85;;;17.10;99.90;;;;;;5073196;28;20033;-65
2023/06/06 03:23:21;;;;;;;14.23;9.15;;;17.00;99.90;;;;;;5073121;28;20056;-65
2023/06/06 03:25:51;;;;;;;15.98;8.45;;;17.00;99.90;;;;;;5073116;28;20498;-65
2023/06/06 03:28:20;;;;;;;12.13;8.32;;;17.10;99.90;;;;;;5073277;28;20268;-65
2023/06/06 03:30:47;;;;;;;15.00;7.75;;;17.00;99.90;;;;;;5073033;28;20044;-65
2023/06/06 03:33:15;;;;;;;13.95;8.57;;;17.00;99.90;;;;;;5073169;28;20028;-65
2023/06/06 03:35:43;;;;;;;20.08;9.57;;;17.00;99.90;;;;;;5073132;28;20473;-65
2023/06/06 03:38:09;;;;;;;13.02;8.63;;;17.10;99.90;;;;;;5073201;28;20024;-65
2023/06/06 03:40:35;;;;;;;12.80;8.73;;;17.10;99.90;;;;;;5072993;28;20032;-65
2023/06/06 03:43:02;;;;;;;13.70;9.40;;;17.10;99.90;;;;;;5076216;28;20054;-65
2023/06/06 03:45:30;;;;;;;15.55;8.98;;;17.10;99.90;;;;;;5077209;28;20501;-65
2023/06/06 03:47:56;;;;;;;18.33;8.68;;;17.10;99.90;;;;;;5077112;28;20034;-64
2023/06/06 03:50:22;;;;;;;16.08;8.55;;;17.10;99.90;;;;;;5077050;28;20428;-64
2023/06/06 03:52:48;;;;;;;17.50;8.60;;;17.00;99.90;;;;;;5076927;28;20025;-65
2023/06/06 03:55:14;;;;;;;15.52;7.78;;;17.00;99.90;;;;;;5077016;28;20133;-64
2023/06/06 03:57:41;;;;;;;15.50;8.20;;;17.10;99.90;;;;;;5060317;28;20509;-65
2023/06/06 04:00:13;;;;;;;21.48;9.55;;;17.10;99.90;;;;;;5076934;28;20137;-65
2023/06/06 04:02:41;;;;;;;16.42;9.48;;;17.00;99.90;;;;;;5076760;28;20033;-65
2023/06/06 04:05:07;;;;;;;15.40;10.50;;;17.10;99.90;;;;;;5076844;28;20130;-65
2023/06/06 04:07:35;;;;;;;13.32;9.52;;;17.10;99.90;;;;;;5076661;28;20040;-64
2023/06/06 04:10:02;;;;;;;14.40;9.23;;;17.10;99.90;;;;;;5076562;28;20482;-64
2023/06/06 04:12:30;;;;;;;11.75;8.88;;;17.10;99.90;;;;;;5076845;28;20606;-65
2023/06/06 04:14:56;;;;;;;15.95;8.75;;;17.20;99.90;;;;;;5078038;28;20036;-64
2023/06/06 04:17:24;;;;;;;16.05;9.25;;;17.10;99.90;;;;;;5076509;28;20470;-65
2023/06/06 04:19:51;;;;;;;21.80;9.15;;;17.10;99.90;;;;;;5076436;28;20036;-65
2023/06/06 04:22:19;;;;;;;19.77;9.65;;;17.10;99.90;;;;;;5059801;28;20036;-65
2023/06/06 04:24:46;;;;;;;16.63;9.00;;;17.10;99.90;;;;;;5076486;28;20025;-64
2023/06/06 04:27:13;;;;;;;22.70;9.73;;;17.10;99.90;;;;;;5076339;28;20017;-65
2023/06/06 04:29:41;;;;;;;17.52;10.82;;;17.10;99.90;;;;;;5059663;28;20028;-65
2023/06/06 04:32:10;;;;;;;19.90;12.73;;;17.10;99.90;;;;;;5076187;28;20027;-64
2023/06/06 04:34:45;;;;;;;25.17;13.15;;;17.20;99.90;;;;;;5077543;28;20055;-65
2023/06/06 04:37:14;;;;;;;15.73;9.95;;;17.40;99.90;;;;;;5077719;28;20028;-65
2023/06/06 04:39:41;;;;;;;18.63;10.73;;;17.40;99.90;;;;;;5077475;28;20040;-65
2023/06/06 04:42:07;;;;;;;15.77;10.50;;;17.40;99.90;;;;;;5076072;28;20425;-65
2023/06/06 04:44:34;;;;;;;16.13;9.68;;;17.50;99.90;;;;;;5075773;28;20043;-65
2023/06/06 04:47:03;;;;;;;17.60;12.15;;;17.50;99.90;;;;;;5077377;28;20040;-64
2023/06/06 04:49:43;;;;;;;15.90;11.77;;;17.50;99.90;;;;;;5075888;28;20086;-64
2023/06/06 04:52:12;;;;;;;19.80;11.20;;;17.40;99.90;;;;;;5075514;28;20474;-65
2023/06/06 04:54:39;;;;;;;17.00;10.45;;;17.50;99.90;;;;;;5077173;28;20056;-65
2023/06/06 04:57:07;;;;;;;13.05;9.48;;;17.50;99.90;;;;;;5076647;28;20036;-65
2023/06/06 04:59:33;;;;;;;19.13;10.57;;;17.50;99.90;;;;;;5067709;28;20538;-65
2023/06/06 05:02:01;;;;;;;17.10;11.13;;;17.50;99.90;;;;;;5074565;28;20493;-65
2023/06/06 05:04:29;;;;;;;13.65;10.07;;;17.40;99.90;;;;;;5076753;28;20029;-65
2023/06/06 05:06:56;;;;;;;13.50;9.38;;;17.40;99.90;;;;;;5076342;28;20036;-65
2023/06/06 05:09:22;;;;;;;14.13;9.57;;;17.50;99.90;;;;;;5076719;28;20021;-65
2023/06/06 05:11:51;;;;;;;75.55;39.60;;;17.50;99.90;;;;;;5076527;28;20033;-65
2023/06/06 05:14:18;;;;;;;32.53;19.30;;;17.50;99.90;;;;;;5076755;28;20028;-65
2023/06/06 05:16:51;;;;;;;26.15;17.25;;;17.60;99.90;;;;;;5076935;28;20024;-65
2023/06/06 05:19:17;;;;;;;38.13;25.20;;;17.60;99.90;;;;;;5076641;28;20035;-65
2023/06/06 05:21:43;;;;;;;23.48;14.88;;;17.60;99.90;;;;;;5076811;28;20116;-65
2023/06/06 05:24:09;;;;;;;15.32;11.60;;;17.60;99.90;;;;;;5075223;28;20084;-64
2023/06/06 05:26:35;;;;;;;28.58;15.55;;;17.70;99.90;;;;;;5076310;28;20024;-64
2023/06/06 05:29:02;;;;;;;20.77;13.55;;;17.60;99.90;;;;;;5074871;28;20536;-65
2023/06/06 05:31:27;;;;;;;17.83;12.38;;;17.70;99.90;;;;;;5074687;28;20033;-65
2023/06/06 05:34:00;;;;;;;17.30;11.40;;;17.70;99.90;;;;;;5075536;28;20109;-64
2023/06/06 05:36:26;;;;;;;19.15;15.88;;;17.70;99.90;;;;;;5075198;28;20032;-64
2023/06/06 05:38:52;;;;;;;21.33;12.55;;;17.90;99.90;;;;;;5076246;28;20024;-64
2023/06/06 05:41:20;;;;;;;19.33;11.48;;;17.90;99.90;;;;;;5076197;28;20143;-65
2023/06/06 05:43:46;;;;;;;17.75;10.68;;;17.90;99.90;;;;;;5076327;28;20036;-64
2023/06/06 05:46:14;;;;;;;26.77;10.68;;;17.90;99.90;;;;;;5075944;28;20035;-64
2023/06/06 05:48:40;;;;;;;20.92;11.55;;;17.90;99.90;;;;;;5074799;28;20028;-65
2023/06/06 05:51:07;;;;;;;17.63;10.60;;;17.90;99.90;;;;;;5075984;28;20060;-65
2023/06/06 05:53:36;;;;;;;18.60;11.80;;;17.90;99.90;;;;;;5074759;28;20100;-65
2023/06/06 05:56:04;;;;;;;;;;;18.00;99.90;;;;;;5076121;28;20118;-65
2023/06/06 05:58:30;;;;;;;13.55;11.02;;;18.00;99.90;;;;;;5069380;28;20374;-65
2023/06/06 06:00:57;;;;;;;13.98;9.88;;;18.10;99.90;;;;;;5075421;28;20039;-65
2023/06/06 06:03:24;;;;;;;13.95;10.55;;;18.10;99.90;;;;;;5075805;28;20029;-64
2023/06/06 06:05:50;;;;;;;14.48;11.95;;;18.10;99.90;;;;;;5074867;28;20104;-64
2023/06/06 06:08:16;;;;;;;18.95;11.20;;;18.10;99.90;;;;;;5074373;28;20524;-65
2023/06/06 06:10:42;;;;;;;19.23;12.70;;;18.20;99.90;;;;;;5074110;28;20112;-64
2023/06/06 06:13:08;;;;;;;24.38;13.48;;;18.20;99.90;;;;;;5075336;28;20059;-64
2023/06/06 06:15:35;;;;;;;21.27;12.65;;;18.20;99.90;;;;;;5075157;28;20050;-65
2023/06/06 06:18:03;;;;;;;21.13;12.18;;;18.30;99.90;;;;;;5075182;28;20021;-65
2023/06/06 06:20:29;;;;;;;15.68;10.68;;;18.30;99.90;;;;;;5075163;28;20029;-65
2023/06/06 06:22:55;;;;;;;18.95;11.77;;;18.40;99.90;;;;;;5075257;28;20058;-65
2023/06/06 06:25:22;;;;;;;17.98;11.73;;;18.40;99.90;;;;;;5075067;28;20037;-65
2023/06/06 06:27:48;;;;;;;16.70;10.70;;;18.50;99.90;;;;;;5074991;28;20032;-65
2023/06/06 06:30:14;;;;;;;21.52;10.50;;;18.60;99.90;;;;;;5075069;28;20378;-64
2023/06/06 06:32:43;;;;;;;18.88;11.48;;;18.50;99.90;;;;;;5074927;28;20466;-65
2023/06/06 06:35:12;;;;;;;17.40;11.40;;;18.50;99.90;;;;;;5075224;28;20056;-64
2023/06/06 06:37:39;;;;;;;18.63;11.50;;;18.60;99.90;;;;;;5074973;28;20130;-64
2023/06/06 06:40:10;;;;;;;19.45;12.27;;;18.60;99.90;;;;;;5075032;28;20077;-64
2023/06/06 06:42:39;;;;;;;;;;;18.70;99.90;;;;;;5075420;28;20039;-64
2023/06/06 06:45:23;;;;;;;14.60;10.77;;;18.80;99.90;;;;;;5073523;28;20034;-64
2023/06/06 06:47:49;;;;;;;20.05;12.10;;;19.00;99.90;;;;;;5074637;28;20107;-65
2023/06/06 06:50:16;;;;;;;19.27;11.07;;;19.00;99.90;;;;;;5073247;28;20039;-64
2023/06/06 06:52:43;;;;;;;16.35;10.73;;;19.10;99.90;;;;;;5073509;28;20021;-64
2023/06/06 06:55:09;;;;;;;24.60;12.25;;;19.10;99.90;;;;;;5074620;28;20170;-64
2023/06/06 06:57:36;;;;;;;14.85;11.50;;;19.30;99.90;;;;;;5067379;28;20037;-64
2023/06/06 07:00:14;;;;;;;26.55;13.02;;;19.30;99.90;;;;;;5057118;28;20054;-64
2023/06/06 07:02:42;;;;;;;37.90;13.30;;;19.40;99.90;;;;;;5073178;28;20028;-64
2023/06/06 07:05:10;;;;;;;17.52;11.52;;;19.50;99.90;;;;;;5054413;28;20069;-65
2023/06/06 07:07:47;;;;;;;26.45;12.70;;;19.50;99.90;;;;;;5054250;28;20036;-65
2023/06/06 07:10:14;;;;;;;25.20;13.75;;;19.70;99.90;;;;;;5054257;28;20052;-64
2023/06/06 07:12:41;;;;;;;25.70;12.88;;;19.80;99.90;;;;;;5054192;28;20032;-64
2023/06/06 07:15:10;;;;;;;21.88;11.98;;;19.80;99.90;;;;;;5056986;28;20038;-64
2023/06/06 07:17:36;;;;;;;21.83;12.83;;;19.90;99.90;;;;;;5074300;28;20437;-64
2023/06/06 07:20:05;;;;;;;27.55;14.25;;;20.00;99.90;;;;;;5074141;28;20073;-64
2023/06/06 07:22:35;;;;;;;23.98;13.73;;;20.10;99.90;;;;;;5074066;28;20032;-64
2023/06/06 07:25:05;;;;;;;35.15;13.77;;;20.10;99.90;;;;;;5074067;28;20028;-64
2023/06/06 07:27:35;;;;;;;20.42;12.05;;;20.40;99.90;;;;;;5073089;28;20039;-64
2023/06/06 07:30:02;;;;;;;;;;;20.50;99.90;;;;;;5073438;28;20038;-64
2023/06/06 07:32:28;;;;;;;21.05;12.98;;;20.70;99.90;;;;;;5074218;28;20386;-64
2023/06/06 07:34:55;;;;;;;22.42;12.82;;;20.80;99.90;;;;;;5072943;28;20032;-64
2023/06/06 07:37:21;;;;;;;27.90;12.82;;;20.90;99.90;;;;;;5073830;28;20038;-64
2023/06/06 07:39:47;;;;;;;31.88;13.45;;;21.10;99.90;;;;;;5072910;28;20043;-64
2023/06/06 07:42:13;;;;;;;29.23;13.57;;;21.00;99.90;;;;;;5074254;28;20020;-64
2023/06/06 07:44:39;;;;;;;25.67;12.73;;;21.00;99.90;;;;;;5073837;28;20032;-64
2023/06/06 07:47:05;;;;;;;28.83;11.52;;;21.20;99.90;;;;;;5073469;28;20037;-64
2023/06/06 07:49:30;;;;;;;17.00;11.95;;;21.20;99.90;;;;;;5059827;28;20087;-64
2023/06/06 07:51:57;;;;;;;29.23;13.55;;;21.20;99.90;;;;;;5052737;28;20029;-64
2023/06/06 07:54:23;;;;;;;24.27;12.40;;;21.20;99.90;;;;;;5053837;28;20087;-64
2023/06/06 07:56:49;;;;;;;39.05;16.08;;;21.10;99.90;;;;;;5054673;28;20041;-64
2023/06/06 07:59:17;;;;;;;24.10;12.85;;;21.20;99.90;;;;;;5073868;28;20033;-64
2023/06/06 08:01:43;;;;;;;19.92;12.85;;;21.30;99.90;;;;;;5073731;28;20063;-64
2023/06/06 08:04:09;;;;;;;29.73;12.25;;;21.50;99.90;;;;;;5074039;28;20029;-65
2023/06/06 08:06:37;;;;;;;20.90;10.85;;;21.70;99.90;;;;;;5073599;28;20032;-64
2023/06/06 08:09:06;;;;;;;22.83;10.38;;;21.70;99.90;;;;;;5073783;28;20024;-64
2023/06/06 08:11:35;;;;;;;19.00;9.43;;;21.70;99.90;;;;;;5073850;28;20028;-64
2023/06/06 08:14:02;;;;;;;14.45;9.90;;;22.00;99.90;;;;;;5071484;28;20528;-64
2023/06/06 08:16:28;;;;;;;20.92;10.32;;;22.20;99.90;;;;;;5073718;28;20454;-64
2023/06/06 08:18:58;;;;;;;17.38;11.48;;;22.20;99.90;;;;;;5074153;28;20025;-64
2023/06/06 08:21:24;;;;;;;25.60;10.77;;;22.30;99.90;;;;;;5064609;28;20048;-64
2023/06/06 08:23:50;;;;;;;30.80;12.45;;;22.30;99.90;;;;;;5052190;28;20036;-64
2023/06/06 08:26:16;;;;;;;31.38;12.82;;;22.40;99.90;;;;;;5052287;28;20033;-64
2023/06/06 08:28:43;;;;;;;23.42;9.20;;;22.40;99.90;;;;;;5055849;28;20037;-64
2023/06/06 08:31:12;;;;;;;13.80;9.35;;;22.20;99.90;;;;;;5057503;28;20029;-64
2023/06/06 08:33:41;;;;;;;22.70;10.25;;;22.30;99.90;;;;;;5057226;28;20356;-63
2023/06/06 08:36:07;;;;;;;16.42;8.63;;;22.40;99.90;;;;;;5057496;28;20100;-64
2023/06/06 08:38:33;;;;;;;16.70;8.95;;;22.50;99.90;;;;;;5055861;28;20025;-64
2023/06/06 08:41:01;;;;;;;17.88;9.82;;;22.60;99.90;;;;;;5057339;28;20051;-64
2023/06/06 08:43:27;;;;;;;15.88;8.38;;;22.50;99.90;;;;;;5056056;28;20040;-64
2023/06/06 08:45:57;;;;;;;13.85;8.95;;;22.50;99.90;;;;;;5057111;28;20032;-64
2023/06/06 08:48:28;;;;;;;18.58;9.27;;;22.50;99.90;;;;;;5057217;28;20482;-64
2023/06/06 08:51:00;;;;;;;18.52;9.45;;;22.70;99.90;;;;;;5057093;28;20096;-64
2023/06/06 08:53:26;;;;;;;14.68;9.02;;;22.70;99.90;;;;;;5055585;28;20060;-64
2023/06/06 08:55:56;;;;;;;17.60;9.15;;;22.60;99.90;;;;;;5056597;28;20451;-64
2023/06/06 08:58:23;;;;;;;26.88;9.80;;;22.50;99.90;;;;;;5070787;28;20029;-64
2023/06/06 09:00:49;;;;;;;16.23;8.95;;;22.50;99.90;;;;;;5076606;28;20029;-63
2023/06/06 09:03:19;;;;;;;15.93;8.43;;;22.40;99.90;;;;;;5075677;28;20028;-64
2023/06/06 09:05:47;;;;;;;14.93;8.43;;;22.30;99.90;;;;;;5076849;28;20032;-63
2023/06/06 09:08:13;;;;;;;15.80;8.20;;;22.30;99.90;;;;;;5076659;28;20059;-64
2023/06/06 09:10:39;;;;;;;22.70;10.63;;;22.30;99.90;;;;;;5076563;28;20450;-64
2023/06/06 09:13:07;;;;;;;24.13;11.27;;;22.50;99.90;;;;;;5076718;28;20059;-63
2023/06/06 09:15:33;;;;;;;19.08;9.85;;;22.50;99.90;;;;;;5077010;28;20111;-64
2023/06/06 09:17:58;;;;;;;21.35;10.05;;;22.80;99.90;;;;;;5077242;28;20104;-63
2023/06/06 09:20:25;;;;;;;17.58;9.55;;;22.80;99.90;;;;;;5077156;28;20031;-64
2023/06/06 09:22:53;;;;;;;16.13;8.85;;;22.80;99.90;;;;;;5077218;28;20032;-64
2023/06/06 09:25:20;;;;;;;17.77;10.05;;;23.00;99.90;;;;;;5077004;28;20485;-64
2023/06/06 09:27:47;;;;;;;23.52;12.23;;;23.20;99.90;;;;;;5076986;28;20062;-64
2023/06/06 09:30:24;;;;;;;25.90;10.40;;;23.30;99.90;;;;;;5076872;28;20052;-64
2023/06/06 09:32:56;;;;;;;16.58;8.82;;;23.20;99.90;;;;;;5075748;28;20031;-64
2023/06/06 09:35:23;;;;;;;15.55;8.93;;;23.00;99.90;;;;;;5077138;28;20025;-64
2023/06/06 09:37:49;;;;;;;16.70;9.63;;;23.30;99.90;;;;;;5076840;28;20024;-64
2023/06/06 09:40:19;;;;;;;23.50;10.20;;;23.20;99.90;;;;;;5075679;28;20029;-64
2023/06/06 09:42:47;;;;;;;19.20;9.25;;;23.30;99.90;;;;;;5076634;28;20059;-64
2023/06/06 09:45:14;;;;;;;17.13;8.25;;;23.50;99.90;;;;;;5076806;28;20470;-64
2023/06/06 09:47:45;;;;;;;13.75;7.63;;;23.50;99.90;;;;;;5076826;28;20029;-64
2023/06/06 09:50:13;;;;;;;10.43;7.10;;;23.20;99.90;;;;;;5076618;28;20440;-64
2023/06/06 09:52:40;;;;;;;16.73;7.75;;;23.30;99.90;;;;;;5076708;28;20605;-64
2023/06/06 09:55:13;;;;;;;14.13;8.38;;;23.40;99.90;;;;;;5076650;28;20116;-64
2023/06/06 09:57:40;;;;;;;22.63;9.95;;;23.60;99.90;;;;;;5076631;28;20072;-64
2023/06/06 10:00:10;;;;;;;20.58;8.60;;;24.20;99.90;;;;;;5074996;28;20040;-64
2023/06/06 10:02:45;;;;;;;18.90;8.02;;;24.70;99.90;;;;;;5076273;28;20537;-64
2023/06/06 10:05:12;;;;;;;21.05;7.95;;;25.00;99.90;;;;;;5076156;28;20614;-64
2023/06/06 10:07:44;;;;;;;12.98;7.53;;;25.20;99.90;;;;;;5071399;28;20493;-64
2023/06/06 10:10:12;;;;;;;18.50;8.18;;;25.40;99.90;;;;;;5055918;28;20052;-64
2023/06/06 10:12:39;;;;;;;13.52;7.85;;;25.50;99.90;;;;;;5056099;28;20056;-64
2023/06/06 10:15:09;;;;;;;14.60;7.32;;;25.60;99.90;;;;;;5056089;28;20025;-64
2023/06/06 10:17:38;;;;;;;15.18;7.20;;;25.60;99.90;;;;;;5056273;28;20070;-64
2023/06/06 10:20:06;;;;;;;10.35;6.47;;;25.80;99.90;;;;;;5055632;28;20021;-64
2023/06/06 10:22:36;;;;;;;14.60;7.90;;;26.10;99.90;;;;;;5055451;28;20494;-64
2023/06/06 10:25:26;;;;;;;12.63;7.05;;;26.20;99.90;;;;;;5055356;28;20033;-64
2023/06/06 10:28:00;;;;;;;14.80;6.30;;;26.40;99.90;;;;;;5055537;28;20029;-64
2023/06/06 10:30:29;;;;;;;8.48;6.72;;;26.40;99.90;;;;;;5055276;28;20032;-64
2023/06/06 10:33:18;;;;;;;12.07;7.00;;;26.40;99.90;;;;;;5055203;28;20029;-64
2023/06/06 10:35:52;;;;;;;22.52;7.93;;;26.70;99.90;;;;;;5055100;28;20108;-64
2023/06/06 10:38:18;;;;;;;16.85;7.82;;;26.90;99.90;;;;;;5055045;28;20029;-64
2023/06/06 10:41:00;;;;;;;15.50;7.53;;;27.10;99.90;;;;;;5055165;28;20029;-64
2023/06/06 10:43:35;;;;;;;15.07;6.22;;;27.40;99.90;;;;;;5053896;28;20037;-64
2023/06/06 10:46:04;;;;;;;12.95;6.20;;;27.50;99.90;;;;;;5055071;28;20044;-64
2023/06/06 10:48:41;;;;;;;10.20;5.72;;;27.70;99.90;;;;;;5054817;28;20036;-64
2023/06/06 10:51:24;;;;;;;13.75;6.82;;;28.00;99.90;;;;;;5054448;28;20029;-64
2023/06/06 10:54:15;;;;;;;9.52;5.88;;;27.60;99.90;;;;;;5055072;28;20162;-64
2023/06/06 10:56:50;;;;;;;10.73;5.72;;;27.30;99.90;;;;;;5054904;28;20147;-64
2023/06/06 10:59:16;;;;;;;15.80;6.38;;;27.50;99.90;;;;;;5054693;28;20493;-64
2023/06/06 11:01:44;;;;;;;15.77;7.05;;;27.70;99.90;;;;;;5054719;28;20033;-64
2023/06/06 11:04:21;;;;;;;10.68;5.78;;;27.80;99.90;;;;;;5054593;28;20112;-64
2023/06/06 11:06:50;;;;;;;8.65;4.10;;;27.80;99.90;;;;;;5054538;28;20514;-64
2023/06/06 11:09:50;;;;;;;8.38;4.65;;;27.40;99.90;;;;;;5054615;28;20474;-64
2023/06/06 11:12:17;;;;;;;7.90;4.30;;;26.80;99.90;;;;;;5052953;28;20029;-64
2023/06/06 11:14:56;;;;;;;9.90;4.57;;;26.20;99.90;;;;;;5054484;28;20024;-64
2023/06/06 11:17:29;;;;;;;15.82;5.80;;;26.10;99.90;;;;;;5054586;28;20039;-64
2023/06/06 11:19:56;;;;;;;6.22;3.85;;;26.20;99.90;;;;;;5053175;28;20029;-64
2023/06/06 11:22:26;;;;;;;8.30;4.60;;;26.10;99.90;;;;;;5054490;28;20029;-64
2023/06/06 11:24:55;;;;;;;8.82;4.15;;;26.40;99.90;;;;;;5054527;28;20123;-64
2023/06/06 11:27:22;;;;;;;13.50;5.32;;;26.60;99.90;;;;;;5053121;28;20041;-64
2023/06/06 11:29:47;;;;;;;11.88;5.68;;;26.50;99.90;;;;;;5054402;28;20090;-64
2023/06/06 11:32:14;;;;;;;13.45;5.75;;;26.70;99.90;;;;;;5054455;28;20025;-64
2023/06/06 11:34:41;;;;;;;6.60;4.00;;;27.10;99.90;;;;;;5053004;28;20025;-64
2023/06/06 11:37:08;;;;;;;14.48;5.07;;;26.50;99.90;;;;;;5054191;28;20379;-64
2023/06/06 11:39:35;;;;;;;7.97;4.50;;;26.60;99.90;;;;;;5054371;28;20027;-64
2023/06/06 11:42:01;;;;;;;12.90;5.00;;;26.40;99.90;;;;;;5054100;28;20112;-64
2023/06/06 11:44:35;;;;;;;6.57;4.28;;;26.70;99.90;;;;;;5054310;28;20682;-63
2023/06/06 11:47:03;;;;;;;13.93;4.88;;;26.70;99.90;;;;;;5054018;28;20033;-64
2023/06/06 11:49:42;;;;;;;7.30;4.38;;;26.80;99.90;;;;;;5053891;28;20107;-64
2023/06/06 11:52:09;;;;;;;7.10;4.65;;;27.20;99.90;;;;;;5054365;28;20108;-64
2023/06/06 11:54:35;;;;;;;7.05;4.00;;;27.30;99.90;;;;;;5053015;28;20061;-63
2023/06/06 11:57:03;;;;;;;8.82;4.90;;;27.20;99.90;;;;;;5056227;28;20072;-63
2023/06/06 11:59:29;;;;;;;11.88;5.03;;;27.10;99.90;;;;;;5074171;28;20025;-64
2023/06/06 12:01:56;;;;;;;11.35;4.18;;;27.10;99.90;;;;;;5074243;28;20024;-64
2023/06/06 12:04:26;;;;;;;13.05;8.52;;;26.80;99.90;;;;;;5077728;28;20025;-63
2023/06/06 12:06:54;;;;;;;5.43;4.60;;;26.50;99.90;;;;;;5078199;28;20085;-63
2023/06/06 12:09:23;;;;;;;10.57;4.65;;;26.30;99.90;;;;;;5078030;28;20156;-64
2023/06/06 12:11:52;;;;;;;9.43;5.45;;;26.10;99.90;;;;;;5077781;28;20040;-64
2023/06/06 12:14:18;;;;;;;9.95;4.82;;;26.40;99.90;;;;;;5077911;28;20040;-64
2023/06/06 12:16:44;;;;;;;13.50;5.43;;;25.40;99.90;;;;;;5077942;28;20030;-64
2023/06/06 12:19:17;;;;;;;6.50;4.53;;;25.60;99.90;;;;;;5077898;28;20028;-64
2023/06/06 12:21:47;;;;;;;14.85;5.13;;;25.70;99.90;;;;;;5077944;28;20024;-64
2023/06/06 12:24:21;;;;;;;14.40;5.18;;;25.80;99.90;;;;;;5077593;28;20026;-64
2023/06/06 12:27:11;;;;;;;11.80;5.13;;;25.80;99.90;;;;;;5077579;28;20409;-64
2023/06/06 12:29:50;;;;;;;11.95;5.22;;;25.80;99.90;;;;;;5077834;28;20111;-64
2023/06/06 12:32:16;;;;;;;7.22;4.07;;;26.00;99.90;;;;;;5077508;28;20060;-64
2023/06/06 12:34:50;;;;;;;13.18;4.65;;;25.90;99.90;;;;;;5075052;28;20029;-64
2023/06/06 12:37:17;;;;;;;9.25;4.22;;;26.00;99.90;;;;;;5077559;28;20086;-63
2023/06/06 12:39:46;;;;;;;6.45;4.38;;;26.30;99.90;;;;;;5077407;28;20025;-64
2023/06/06 12:42:14;;;;;;;8.02;4.78;;;26.50;99.90;;;;;;5077419;28;20466;-64